sensor_id;sensor_type;location;lat;lon;timestamp;pressure;altitude;pressure_sealevel;temperature;humidity
11878;BME280;5998;42.676;23.268;2023-10-09T00:01:02;95314.47;;;18.42;100.00
11878;BME280;5998;42.676;23.268;2023-10-09T00:03:31;95304.66;;;18.38;100.00
11878;BME280;5998;42.676;23.268;2023-10-09T00:05:58;95296.13;;;18.39;100.00
11878;BME280;5998;42.676;23.268;2023-10-09T00:08:27;95301.16;;;18.34;100.00
11878;BME280;5998;42.676;23.268;2023-10-09T00:10:58;95301.94;;;18.34;100.00
11878;BME280;5998;42.676;23.268;2023-10-09T00:13:39;95305.47;;;18.38;100.00
11878;BME280;5998;42.676;23.268;2023-10-09T00:16:15;95306.63;;;18.37;100.00
11878;BME280;5998;42.676;23.268;2023-10-09T00:18:50;95302.28;;;18.33;100.00
11878;BME280;5998;42.676;23.268;2023-10-09T00:21:19;95303.47;;;18.35;100.00
11878;BME280;5998;42.676;23.268;2023-10-09T00:23:48;95301.47;;;18.25;100.00
11878;BME280;5998;42.676;23.268;2023-10-09T00:26:21;95303.38;;;18.21;100.00
11878;BME280;5998;42.676;23.268;2023-10-09T00:28:48;95298.34;;;18.23;100.00
11878;BME280;5998;42.676;23.268;2023-10-09T00:31:17;95302.59;;;18.20;100.00
11878;BME280;5998;42.676;23.268;2023-10-09T00:33:54;95293.16;;;18.07;100.00
11878;BME280;5998;42.676;23.268;2023-10-09T00:36:21;95291.91;;;18.01;100.00
11878;BME280;5998;42.676;23.268;2023-10-09T00:38:54;95291.16;;;18.04;100.00
11878;BME280;5998;42.676;23.268;2023-10-09T00:41:20;95292.56;;;17.91;100.00
11878;BME280;5998;42.676;23.268;2023-10-09T00:43:50;95297.25;;;17.91;100.00
11878;BME280;5998;42.676;23.268;2023-10-09T00:46:19;95297.00;;;17.69;100.00
11878;BME280;5998;42.676;23.268;2023-10-09T00:48:56;95288.19;;;17.50;100.00
11878;BME280;5998;42.676;23.268;2023-10-09T00:51:26;95290.81;;;17.39;100.00
11878;BME280;5998;42.676;23.268;2023-10-09T00:54:01;95289.53;;;17.30;100.00
11878;BME280;5998;42.676;23.268;2023-10-09T00:56:33;95297.59;;;17.23;100.00
11878;BME280;5998;42.676;23.268;2023-10-09T00:59:05;95301.16;;;17.27;100.00
11878;BME280;5998;42.676;23.268;2023-10-09T01:01:40;95306.50;;;17.20;100.00
11878;BME280;5998;42.676;23.268;2023-10-09T01:04:15;95313.44;;;17.14;100.00
11878;BME280;5998;42.676;23.268;2023-10-09T01:06:45;95318.97;;;17.21;100.00
11878;BME280;5998;42.676;23.268;2023-10-09T01:09:18;95322.28;;;17.07;100.00
11878;BME280;5998;42.676;23.268;2023-10-09T01:11:48;95327.25;;;17.01;100.00
11878;BME280;5998;42.676;23.268;2023-10-09T01:14:28;95326.25;;;16.87;100.00
11878;BME280;5998;42.676;23.268;2023-10-09T01:16:56;95343.31;;;16.84;100.00
11878;BME280;5998;42.676;23.268;2023-10-09T01:19:27;95351.28;;;16.70;100.00
11878;BME280;5998;42.676;23.268;2023-10-09T01:21:56;95337.94;;;16.61;100.00
11878;BME280;5998;42.676;23.268;2023-10-09T01:24:31;95344.72;;;16.51;100.00
11878;BME280;5998;42.676;23.268;2023-10-09T01:27:00;95333.75;;;16.44;100.00
11878;BME280;5998;42.676;23.268;2023-10-09T01:29:30;95335.94;;;16.58;100.00
11878;BME280;5998;42.676;23.268;2023-10-09T01:31:57;95347.47;;;16.74;100.00
11878;BME280;5998;42.676;23.268;2023-10-09T01:34:27;95365.78;;;16.77;100.00
11878;BME280;5998;42.676;23.268;2023-10-09T01:37:04;95378.31;;;16.85;100.00
11878;BME280;5998;42.676;23.268;2023-10-09T01:39:38;95376.81;;;16.88;100.00
11878;BME280;5998;42.676;23.268;2023-10-09T01:42:07;95378.81;;;16.91;100.00
11878;BME280;5998;42.676;23.268;2023-10-09T01:44:36;95370.06;;;16.78;100.00
11878;BME280;5998;42.676;23.268;2023-10-09T01:47:08;95359.13;;;16.52;100.00
11878;BME280;5998;42.676;23.268;2023-10-09T01:49:39;95373.50;;;16.30;100.00
11878;BME280;5998;42.676;23.268;2023-10-09T01:52:09;95373.38;;;16.23;100.00
11878;BME280;5998;42.676;23.268;2023-10-09T01:54:43;95390.44;;;16.01;100.00
11878;BME280;5998;42.676;23.268;2023-10-09T01:57:13;95406.75;;;15.81;100.00
11878;BME280;5998;42.676;23.268;2023-10-09T01:59:43;95395.59;;;15.67;100.00
11878;BME280;5998;42.676;23.268;2023-10-09T02:02:15;95400.44;;;15.58;100.00
11878;BME280;5998;42.676;23.268;2023-10-09T02:04:52;95411.97;;;15.52;100.00
11878;BME280;5998;42.676;23.268;2023-10-09T02:07:20;95422.69;;;15.64;100.00
11878;BME280;5998;42.676;23.268;2023-10-09T02:09:56;95425.75;;;15.62;100.00
11878;BME280;5998;42.676;23.268;2023-10-09T02:12:23;95433.53;;;15.64;100.00
11878;BME280;5998;42.676;23.268;2023-10-09T02:14:50;95424.09;;;15.58;100.00
11878;BME280;5998;42.676;23.268;2023-10-09T02:17:21;95420.19;;;15.40;100.00
11878;BME280;5998;42.676;23.268;2023-10-09T02:19:54;95411.03;;;15.28;100.00
11878;BME280;5998;42.676;23.268;2023-10-09T02:22:21;95410.16;;;15.24;100.00
11878;BME280;5998;42.676;23.268;2023-10-09T02:24:51;95417.81;;;15.03;100.00
11878;BME280;5998;42.676;23.268;2023-10-09T02:27:25;95423.69;;;15.05;100.00
11878;BME280;5998;42.676;23.268;2023-10-09T02:30:18;95432.78;;;14.97;100.00
11878;BME280;5998;42.676;23.268;2023-10-09T02:32:53;95443.91;;;15.08;100.00
11878;BME280;5998;42.676;23.268;2023-10-09T02:35:24;95435.13;;;15.14;100.00
11878;BME280;5998;42.676;23.268;2023-10-09T02:37:57;95444.72;;;15.27;100.00
11878;BME280;5998;42.676;23.268;2023-10-09T02:40:27;95449.44;;;15.30;100.00
11878;BME280;5998;42.676;23.268;2023-10-09T02:42:58;95452.63;;;15.32;100.00
11878;BME280;5998;42.676;23.268;2023-10-09T02:45:25;95452.06;;;15.43;100.00
11878;BME280;5998;42.676;23.268;2023-10-09T02:48:05;95456.97;;;15.37;100.00
11878;BME280;5998;42.676;23.268;2023-10-09T02:50:36;95456.34;;;15.44;100.00
11878;BME280;5998;42.676;23.268;2023-10-09T02:53:03;95451.63;;;15.41;100.00
11878;BME280;5998;42.676;23.268;2023-10-09T02:55:35;95449.97;;;15.36;100.00
11878;BME280;5998;42.676;23.268;2023-10-09T02:58:05;95455.75;;;15.34;100.00
11878;BME280;5998;42.676;23.268;2023-10-09T03:00:33;95453.34;;;15.14;100.00
11878;BME280;5998;42.676;23.268;2023-10-09T03:03:03;95451.16;;;15.04;100.00
11878;BME280;5998;42.676;23.268;2023-10-09T03:05:32;95450.75;;;15.02;100.00
11878;BME280;5998;42.676;23.268;2023-10-09T03:07:59;95459.06;;;14.93;100.00
11878;BME280;5998;42.676;23.268;2023-10-09T03:10:27;95458.34;;;14.81;100.00
11878;BME280;5998;42.676;23.268;2023-10-09T03:12:54;95459.84;;;14.78;100.00
11878;BME280;5998;42.676;23.268;2023-10-09T03:15:22;95460.72;;;14.82;100.00
11878;BME280;5998;42.676;23.268;2023-10-09T03:17:49;95465.09;;;14.87;100.00
11878;BME280;5998;42.676;23.268;2023-10-09T03:20:16;95472.09;;;14.88;100.00
11878;BME280;5998;42.676;23.268;2023-10-09T03:22:44;95473.94;;;14.99;100.00
11878;BME280;5998;42.676;23.268;2023-10-09T03:25:13;95488.53;;;14.95;100.00
11878;BME280;5998;42.676;23.268;2023-10-09T03:27:42;95487.47;;;14.84;100.00
11878;BME280;5998;42.676;23.268;2023-10-09T03:30:11;95483.81;;;14.76;100.00
11878;BME280;5998;42.676;23.268;2023-10-09T03:32:46;95474.50;;;14.61;100.00
11878;BME280;5998;42.676;23.268;2023-10-09T03:35:16;95489.72;;;14.50;100.00
11878;BME280;5998;42.676;23.268;2023-10-09T03:37:50;95489.22;;;14.60;100.00
11878;BME280;5998;42.676;23.268;2023-10-09T03:40:16;95504.69;;;14.60;100.00
11878;BME280;5998;42.676;23.268;2023-10-09T03:42:44;95506.22;;;14.45;100.00
11878;BME280;5998;42.676;23.268;2023-10-09T03:45:10;95501.56;;;14.30;100.00
11878;BME280;5998;42.676;23.268;2023-10-09T03:47:52;95494.00;;;14.24;100.00
11878;BME280;5998;42.676;23.268;2023-10-09T03:50:23;95502.75;;;14.17;100.00
11878;BME280;5998;42.676;23.268;2023-10-09T03:52:55;95500.22;;;13.96;100.00
11878;BME280;5998;42.676;23.268;2023-10-09T03:55:22;95496.31;;;13.82;100.00
11878;BME280;5998;42.676;23.268;2023-10-09T03:57:53;95508.72;;;13.83;100.00
11878;BME280;5998;42.676;23.268;2023-10-09T04:00:23;95494.78;;;13.69;100.00
11878;BME280;5998;42.676;23.268;2023-10-09T04:02:55;95513.16;;;13.63;100.00
11878;BME280;5998;42.676;23.268;2023-10-09T04:05:22;95503.06;;;13.48;100.00
11878;BME280;5998;42.676;23.268;2023-10-09T04:07:50;95509.25;;;13.48;100.00
11878;BME280;5998;42.676;23.268;2023-10-09T04:10:19;95513.97;;;13.51;100.00
11878;BME280;5998;42.676;23.268;2023-10-09T04:13:16;95512.19;;;13.43;100.00
11878;BME280;5998;42.676;23.268;2023-10-09T04:15:44;95510.63;;;13.42;100.00
11878;BME280;5998;42.676;23.268;2023-10-09T04:18:12;95506.91;;;13.35;100.00
11878;BME280;5998;42.676;23.268;2023-10-09T04:20:41;95514.56;;;13.33;100.00
11878;BME280;5998;42.676;23.268;2023-10-09T04:23:33;95507.34;;;13.25;100.00
11878;BME280;5998;42.676;23.268;2023-10-09T04:26:23;95514.00;;;13.27;100.00
11878;BME280;5998;42.676;23.268;2023-10-09T04:28:51;95515.34;;;13.33;100.00
11878;BME280;5998;42.676;23.268;2023-10-09T04:31:18;95521.13;;;13.32;100.00
11878;BME280;5998;42.676;23.268;2023-10-09T04:33:48;95522.00;;;13.36;100.00
11878;BME280;5998;42.676;23.268;2023-10-09T04:36:41;95518.84;;;13.34;100.00
11878;BME280;5998;42.676;23.268;2023-10-09T04:39:15;95514.00;;;13.39;100.00
11878;BME280;5998;42.676;23.268;2023-10-09T04:42:00;95511.53;;;13.34;100.00
11878;BME280;5998;42.676;23.268;2023-10-09T04:44:52;95520.09;;;13.36;100.00
11878;BME280;5998;42.676;23.268;2023-10-09T04:47:38;95519.28;;;13.48;100.00
11878;BME280;5998;42.676;23.268;2023-10-09T04:50:16;95520.78;;;13.45;100.00
11878;BME280;5998;42.676;23.268;2023-10-09T04:52:56;95517.81;;;13.38;100.00
11878;BME280;5998;42.676;23.268;2023-10-09T04:55:43;95521.31;;;13.51;100.00
11878;BME280;5998;42.676;23.268;2023-10-09T04:58:19;95498.34;;;13.33;100.00
11878;BME280;5998;42.676;23.268;2023-10-09T05:00:50;95521.09;;;13.56;100.00
11878;BME280;5998;42.676;23.268;2023-10-09T05:03:30;95523.47;;;13.45;100.00
11878;BME280;5998;42.676;23.268;2023-10-09T05:06:11;95530.56;;;13.50;100.00
11878;BME280;5998;42.676;23.268;2023-10-09T05:08:58;95546.91;;;13.53;100.00
11878;BME280;5998;42.676;23.268;2023-10-09T05:11:34;95540.25;;;13.51;100.00
11878;BME280;5998;42.676;23.268;2023-10-09T05:14:19;95545.75;;;13.54;100.00
11878;BME280;5998;42.676;23.268;2023-10-09T05:16:52;95547.47;;;13.59;100.00
11878;BME280;5998;42.676;23.268;2023-10-09T05:19:26;95548.38;;;13.51;100.00
11878;BME280;5998;42.676;23.268;2023-10-09T05:22:09;95542.13;;;13.63;100.00
11878;BME280;5998;42.676;23.268;2023-10-09T05:24:42;95553.09;;;13.66;100.00
11878;BME280;5998;42.676;23.268;2023-10-09T05:27:12;95549.81;;;13.60;100.00
11878;BME280;5998;42.676;23.268;2023-10-09T05:30:11;95565.50;;;13.55;100.00
11878;BME280;5998;42.676;23.268;2023-10-09T05:32:53;95571.16;;;13.50;100.00
11878;BME280;5998;42.676;23.268;2023-10-09T05:35:24;95574.19;;;13.60;100.00
11878;BME280;5998;42.676;23.268;2023-10-09T05:38:07;95576.53;;;13.74;100.00
11878;BME280;5998;42.676;23.268;2023-10-09T05:40:49;95571.44;;;13.85;100.00
11878;BME280;5998;42.676;23.268;2023-10-09T05:43:19;95571.09;;;13.86;100.00
11878;BME280;5998;42.676;23.268;2023-10-09T05:46:00;95580.53;;;14.04;100.00
11878;BME280;5998;42.676;23.268;2023-10-09T05:48:35;95592.56;;;14.19;100.00
11878;BME280;5998;42.676;23.268;2023-10-09T05:51:20;95591.97;;;14.26;99.22
11878;BME280;5998;42.676;23.268;2023-10-09T05:54:02;95591.47;;;14.48;100.00
11878;BME280;5998;42.676;23.268;2023-10-09T05:56:49;95604.47;;;14.70;98.13
11878;BME280;5998;42.676;23.268;2023-10-09T05:59:34;95608.38;;;14.85;94.91
11878;BME280;5998;42.676;23.268;2023-10-09T06:02:18;95607.66;;;14.44;93.41
11878;BME280;5998;42.676;23.268;2023-10-09T06:05:16;95618.38;;;14.29;94.49
11878;BME280;5998;42.676;23.268;2023-10-09T06:08:00;95614.91;;;14.16;94.12
11878;BME280;5998;42.676;23.268;2023-10-09T06:10:34;95621.94;;;14.17;94.61
11878;BME280;5998;42.676;23.268;2023-10-09T06:13:07;95622.47;;;14.35;93.45
11878;BME280;5998;42.676;23.268;2023-10-09T06:15:54;95634.09;;;14.23;91.82
11878;BME280;5998;42.676;23.268;2023-10-09T06:18:46;95641.78;;;14.33;94.03
11878;BME280;5998;42.676;23.268;2023-10-09T06:21:33;95631.50;;;14.39;93.06
11878;BME280;5998;42.676;23.268;2023-10-09T06:24:14;95632.72;;;14.41;93.65
11878;BME280;5998;42.676;23.268;2023-10-09T06:26:46;95639.19;;;14.64;93.05
11878;BME280;5998;42.676;23.268;2023-10-09T06:29:32;95641.94;;;14.52;89.77
11878;BME280;5998;42.676;23.268;2023-10-09T06:32:02;95641.09;;;14.36;91.03
11878;BME280;5998;42.676;23.268;2023-10-09T06:34:50;95643.84;;;14.64;91.40
11878;BME280;5998;42.676;23.268;2023-10-09T06:37:18;95647.13;;;14.85;91.37
11878;BME280;5998;42.676;23.268;2023-10-09T06:39:45;95651.38;;;14.86;88.80
11878;BME280;5998;42.676;23.268;2023-10-09T06:42:38;95629.38;;;15.03;89.50
11878;BME280;5998;42.676;23.268;2023-10-09T06:45:10;95625.81;;;14.99;89.86
11878;BME280;5998;42.676;23.268;2023-10-09T06:47:40;95634.31;;;15.13;91.18
11878;BME280;5998;42.676;23.268;2023-10-09T06:50:07;95644.28;;;15.25;82.20
11878;BME280;5998;42.676;23.268;2023-10-09T06:52:51;95638.44;;;15.38;100.00
11878;BME280;5998;42.676;23.268;2023-10-09T06:55:44;95644.25;;;15.84;84.60
11878;BME280;5998;42.676;23.268;2023-10-09T06:58:17;95648.34;;;15.31;79.21
11878;BME280;5998;42.676;23.268;2023-10-09T07:00:49;95632.63;;;15.68;90.58
11878;BME280;5998;42.676;23.268;2023-10-09T07:03:40;95636.41;;;15.35;76.59
11878;BME280;5998;42.676;23.268;2023-10-09T07:06:18;95638.56;;;15.73;81.34
11878;BME280;5998;42.676;23.268;2023-10-09T07:08:50;95634.88;;;15.81;75.94
11878;BME280;5998;42.676;23.268;2023-10-09T07:11:42;95647.88;;;16.07;73.82
11878;BME280;5998;42.676;23.268;2023-10-09T07:14:27;95639.97;;;16.18;68.67
11878;BME280;5998;42.676;23.268;2023-10-09T07:17:12;95639.75;;;16.26;76.02
11878;BME280;5998;42.676;23.268;2023-10-09T07:20:10;95634.78;;;16.47;68.56
11878;BME280;5998;42.676;23.268;2023-10-09T07:22:40;95646.28;;;16.41;65.81
11878;BME280;5998;42.676;23.268;2023-10-09T07:25:22;95636.13;;;15.68;66.83
11878;BME280;5998;42.676;23.268;2023-10-09T07:28:07;95642.47;;;15.91;66.71
11878;BME280;5998;42.676;23.268;2023-10-09T07:30:56;95645.44;;;16.02;68.58
11878;BME280;5998;42.676;23.268;2023-10-09T07:33:24;95637.72;;;16.04;65.44
11878;BME280;5998;42.676;23.268;2023-10-09T07:36:01;95644.78;;;15.74;65.45
11878;BME280;5998;42.676;23.268;2023-10-09T07:38:31;95639.66;;;16.04;65.95
11878;BME280;5998;42.676;23.268;2023-10-09T07:41:01;95641.66;;;16.07;64.06
11878;BME280;5998;42.676;23.268;2023-10-09T07:43:42;95642.00;;;16.05;63.51
11878;BME280;5998;42.676;23.268;2023-10-09T07:46:14;95647.28;;;16.33;62.50
11878;BME280;5998;42.676;23.268;2023-10-09T07:48:59;95651.09;;;16.13;60.30
11878;BME280;5998;42.676;23.268;2023-10-09T07:51:26;95633.28;;;16.15;68.05
11878;BME280;5998;42.676;23.268;2023-10-09T07:53:57;95640.94;;;16.44;66.20
11878;BME280;5998;42.676;23.268;2023-10-09T07:56:32;95651.56;;;16.88;62.30
11878;BME280;5998;42.676;23.268;2023-10-09T07:59:04;95650.13;;;16.94;59.23
11878;BME280;5998;42.676;23.268;2023-10-09T08:01:37;95643.16;;;17.16;59.94
11878;BME280;5998;42.676;23.268;2023-10-09T08:04:05;95654.41;;;17.37;59.45
11878;BME280;5998;42.676;23.268;2023-10-09T08:06:37;95656.47;;;17.21;61.32
11878;BME280;5998;42.676;23.268;2023-10-09T08:09:08;95656.00;;;16.77;54.74
11878;BME280;5998;42.676;23.268;2023-10-09T08:12:04;95654.03;;;17.16;54.70
11878;BME280;5998;42.676;23.268;2023-10-09T08:14:48;95648.72;;;16.81;55.52
11878;BME280;5998;42.676;23.268;2023-10-09T08:17:16;95661.94;;;16.63;55.52
11878;BME280;5998;42.676;23.268;2023-10-09T08:19:46;95650.13;;;16.56;55.76
11878;BME280;5998;42.676;23.268;2023-10-09T08:22:23;95645.03;;;16.54;58.01
11878;BME280;5998;42.676;23.268;2023-10-09T08:25:08;95643.03;;;16.70;56.71
11878;BME280;5998;42.676;23.268;2023-10-09T08:27:52;95646.56;;;16.36;57.38
11878;BME280;5998;42.676;23.268;2023-10-09T08:30:21;95643.19;;;16.77;58.56
11878;BME280;5998;42.676;23.268;2023-10-09T08:33:15;95627.25;;;17.18;57.00
11878;BME280;5998;42.676;23.268;2023-10-09T08:36:00;95618.19;;;17.55;59.95
11878;BME280;5998;42.676;23.268;2023-10-09T08:38:30;95615.84;;;17.54;53.09
11878;BME280;5998;42.676;23.268;2023-10-09T08:41:09;95589.38;;;17.09;52.91
11878;BME280;5998;42.676;23.268;2023-10-09T08:43:48;95611.88;;;17.06;53.68
11878;BME280;5998;42.676;23.268;2023-10-09T08:46:19;95607.66;;;16.89;52.83
11878;BME280;5998;42.676;23.268;2023-10-09T08:48:48;95610.25;;;16.82;53.01
11878;BME280;5998;42.676;23.268;2023-10-09T08:51:17;95605.03;;;16.74;51.65
11878;BME280;5998;42.676;23.268;2023-10-09T08:53:45;95590.16;;;17.09;52.14
11878;BME280;5998;42.676;23.268;2023-10-09T08:56:12;95603.16;;;17.20;50.52
11878;BME280;5998;42.676;23.268;2023-10-09T08:58:45;95594.47;;;17.10;50.71
11878;BME280;5998;42.676;23.268;2023-10-09T09:01:16;95582.31;;;17.04;50.02
11878;BME280;5998;42.676;23.268;2023-10-09T09:03:46;95591.50;;;16.96;50.04
11878;BME280;5998;42.676;23.268;2023-10-09T09:06:13;95579.91;;;16.80;51.74
11878;BME280;5998;42.676;23.268;2023-10-09T09:08:40;95594.09;;;16.70;50.76
11878;BME280;5998;42.676;23.268;2023-10-09T09:11:11;95567.13;;;16.62;58.09
11878;BME280;5998;42.676;23.268;2023-10-09T09:13:42;95599.47;;;17.31;58.09
11878;BME280;5998;42.676;23.268;2023-10-09T09:16:18;95605.94;;;17.00;50.13
11878;BME280;5998;42.676;23.268;2023-10-09T09:18:54;95592.75;;;17.25;50.92
11878;BME280;5998;42.676;23.268;2023-10-09T09:21:26;95601.72;;;17.26;49.67
11878;BME280;5998;42.676;23.268;2023-10-09T09:23:54;95585.75;;;17.24;51.68
11878;BME280;5998;42.676;23.268;2023-10-09T09:26:36;95595.78;;;17.20;49.35
11878;BME280;5998;42.676;23.268;2023-10-09T09:29:05;95555.19;;;16.66;49.75
11878;BME280;5998;42.676;23.268;2023-10-09T09:31:32;95586.28;;;17.33;49.61
11878;BME280;5998;42.676;23.268;2023-10-09T09:34:05;95586.41;;;17.18;54.24
11878;BME280;5998;42.676;23.268;2023-10-09T09:36:49;95574.56;;;17.52;49.26
11878;BME280;5998;42.676;23.268;2023-10-09T09:39:21;95571.56;;;18.09;48.59
11878;BME280;5998;42.676;23.268;2023-10-09T09:41:55;95558.81;;;17.64;46.82
11878;BME280;5998;42.676;23.268;2023-10-09T09:44:23;95556.94;;;17.68;48.31
11878;BME280;5998;42.676;23.268;2023-10-09T09:46:56;95555.69;;;17.62;52.21
11878;BME280;5998;42.676;23.268;2023-10-09T09:49:27;95574.19;;;17.76;46.35
11878;BME280;5998;42.676;23.268;2023-10-09T09:52:00;95563.38;;;18.09;47.10
11878;BME280;5998;42.676;23.268;2023-10-09T09:54:35;95569.84;;;17.72;44.99
11878;BME280;5998;42.676;23.268;2023-10-09T09:57:03;95561.13;;;17.40;45.93
11878;BME280;5998;42.676;23.268;2023-10-09T09:59:37;95548.47;;;17.74;45.29
11878;BME280;5998;42.676;23.268;2023-10-09T10:02:06;95534.16;;;17.54;44.92
11878;BME280;5998;42.676;23.268;2023-10-09T10:04:36;95533.06;;;17.85;45.00
11878;BME280;5998;42.676;23.268;2023-10-09T10:07:06;95535.31;;;17.79;43.23
11878;BME280;5998;42.676;23.268;2023-10-09T10:09:35;95529.81;;;18.05;43.84
11878;BME280;5998;42.676;23.268;2023-10-09T10:12:04;95535.47;;;18.19;43.30
11878;BME280;5998;42.676;23.268;2023-10-09T10:14:53;95519.44;;;17.85;42.22
11878;BME280;5998;42.676;23.268;2023-10-09T10:17:22;95514.44;;;17.90;42.45
11878;BME280;5998;42.676;23.268;2023-10-09T10:20:01;95502.41;;;18.24;42.04
11878;BME280;5998;42.676;23.268;2023-10-09T10:22:48;95494.09;;;18.80;42.74
11878;BME280;5998;42.676;23.268;2023-10-09T10:25:34;95487.09;;;18.83;43.13
11878;BME280;5998;42.676;23.268;2023-10-09T10:28:20;95462.19;;;18.88;41.19
11878;BME280;5998;42.676;23.268;2023-10-09T10:31:07;95476.75;;;18.62;40.91
11878;BME280;5998;42.676;23.268;2023-10-09T10:34:05;95473.25;;;18.62;42.27
11878;BME280;5998;42.676;23.268;2023-10-09T10:36:37;95471.06;;;18.78;42.30
11878;BME280;5998;42.676;23.268;2023-10-09T10:39:08;95454.19;;;19.09;42.10
11878;BME280;5998;42.676;23.268;2023-10-09T10:41:36;95456.28;;;19.30;41.22
11878;BME280;5998;42.676;23.268;2023-10-09T10:44:23;95452.13;;;18.96;41.33
11878;BME280;5998;42.676;23.268;2023-10-09T10:47:08;95437.16;;;18.79;42.48
11878;BME280;5998;42.676;23.268;2023-10-09T10:49:48;95436.84;;;18.84;42.67
11878;BME280;5998;42.676;23.268;2023-10-09T10:52:25;95434.78;;;19.21;42.08
11878;BME280;5998;42.676;23.268;2023-10-09T10:55:13;95427.06;;;19.30;41.71
11878;BME280;5998;42.676;23.268;2023-10-09T10:57:59;95433.84;;;19.00;41.65
11878;BME280;5998;42.676;23.268;2023-10-09T11:00:35;95421.47;;;19.16;41.80
11878;BME280;5998;42.676;23.268;2023-10-09T11:03:20;95418.75;;;19.16;41.41
11878;BME280;5998;42.676;23.268;2023-10-09T11:05:55;95429.47;;;19.39;40.91
11878;BME280;5998;42.676;23.268;2023-10-09T11:08:25;95417.50;;;19.58;41.17
11878;BME280;5998;42.676;23.268;2023-10-09T11:11:10;95416.00;;;19.74;41.25
11878;BME280;5998;42.676;23.268;2023-10-09T11:13:41;95404.56;;;19.51;40.17
11878;BME280;5998;42.676;23.268;2023-10-09T11:16:19;95398.75;;;19.60;40.11
11878;BME280;5998;42.676;23.268;2023-10-09T11:18:54;95390.31;;;19.93;40.18
11878;BME280;5998;42.676;23.268;2023-10-09T11:21:23;95384.94;;;20.21;40.27
11878;BME280;5998;42.676;23.268;2023-10-09T11:23:59;95375.56;;;20.15;39.63
11878;BME280;5998;42.676;23.268;2023-10-09T11:26:46;95372.75;;;19.97;39.93
11878;BME280;5998;42.676;23.268;2023-10-09T11:29:19;95375.88;;;19.96;40.16
11878;BME280;5998;42.676;23.268;2023-10-09T11:32:02;95386.53;;;20.26;39.05
11878;BME280;5998;42.676;23.268;2023-10-09T11:34:31;95378.75;;;20.42;39.50
11878;BME280;5998;42.676;23.268;2023-10-09T11:36:58;95383.06;;;20.53;39.00
11878;BME280;5998;42.676;23.268;2023-10-09T11:39:29;95379.56;;;20.46;37.73
11878;BME280;5998;42.676;23.268;2023-10-09T11:42:03;95376.06;;;20.59;37.31
11878;BME280;5998;42.676;23.268;2023-10-09T11:44:40;95370.47;;;20.17;37.97
11878;BME280;5998;42.676;23.268;2023-10-09T11:47:07;95360.00;;;20.37;37.74
11878;BME280;5998;42.676;23.268;2023-10-09T11:49:58;95352.97;;;20.92;38.01
11878;BME280;5998;42.676;23.268;2023-10-09T11:52:56;95345.53;;;20.40;37.31
11878;BME280;5998;42.676;23.268;2023-10-09T11:55:36;95349.44;;;20.64;37.17
11878;BME280;5998;42.676;23.268;2023-10-09T11:58:02;95338.13;;;20.72;37.36
11878;BME280;5998;42.676;23.268;2023-10-09T12:00:30;95327.97;;;20.76;36.95
11878;BME280;5998;42.676;23.268;2023-10-09T12:03:08;95329.91;;;20.76;37.26
11878;BME280;5998;42.676;23.268;2023-10-09T12:05:34;95326.38;;;21.00;36.86
11878;BME280;5998;42.676;23.268;2023-10-09T12:08:02;95317.00;;;21.08;36.61
11878;BME280;5998;42.676;23.268;2023-10-09T12:10:33;95303.19;;;21.50;35.81
11878;BME280;5998;42.676;23.268;2023-10-09T12:13:06;95308.47;;;22.00;36.96
11878;BME280;5998;42.676;23.268;2023-10-09T12:15:33;95298.59;;;22.13;33.25
11878;BME280;5998;42.676;23.268;2023-10-09T12:18:04;95299.59;;;22.37;32.40
11878;BME280;5998;42.676;23.268;2023-10-09T12:20:40;95298.88;;;22.25;32.01
11878;BME280;5998;42.676;23.268;2023-10-09T12:23:07;95297.53;;;22.51;32.03
11878;BME280;5998;42.676;23.268;2023-10-09T12:25:38;95292.13;;;22.88;31.73
11878;BME280;5998;42.676;23.268;2023-10-09T12:28:06;95291.94;;;22.62;29.33
11878;BME280;5998;42.676;23.268;2023-10-09T12:30:35;95292.34;;;22.60;29.01
11878;BME280;5998;42.676;23.268;2023-10-09T12:33:05;95295.59;;;22.48;28.97
11878;BME280;5998;42.676;23.268;2023-10-09T12:35:36;95291.94;;;22.07;28.57
11878;BME280;5998;42.676;23.268;2023-10-09T12:38:03;95286.56;;;21.86;29.12
11878;BME280;5998;42.676;23.268;2023-10-09T12:40:34;95289.28;;;21.93;28.48
11878;BME280;5998;42.676;23.268;2023-10-09T12:43:01;95270.50;;;21.91;28.23
11878;BME280;5998;42.676;23.268;2023-10-09T12:45:33;95260.47;;;22.25;28.72
11878;BME280;5998;42.676;23.268;2023-10-09T12:48:00;95282.31;;;22.40;28.41
11878;BME280;5998;42.676;23.268;2023-10-09T12:50:28;95265.41;;;22.48;28.06
11878;BME280;5998;42.676;23.268;2023-10-09T12:52:59;95261.50;;;22.42;27.84
11878;BME280;5998;42.676;23.268;2023-10-09T12:55:34;95252.19;;;22.32;27.39
11878;BME280;5998;42.676;23.268;2023-10-09T12:58:06;95258.06;;;22.34;27.34
11878;BME280;5998;42.676;23.268;2023-10-09T13:00:35;95256.91;;;22.32;27.85
11878;BME280;5998;42.676;23.268;2023-10-09T13:03:05;95251.63;;;22.04;26.77
11878;BME280;5998;42.676;23.268;2023-10-09T13:05:43;95252.94;;;21.74;26.86
11878;BME280;5998;42.676;23.268;2023-10-09T13:08:18;95243.00;;;22.02;26.42
11878;BME280;5998;42.676;23.268;2023-10-09T13:13:15;95241.69;;;22.24;26.25
11878;BME280;5998;42.676;23.268;2023-10-09T13:15:43;95230.69;;;22.27;26.14
11878;BME280;5998;42.676;23.268;2023-10-09T13:18:09;95225.59;;;22.26;25.96
11878;BME280;5998;42.676;23.268;2023-10-09T13:20:38;95218.41;;;21.95;26.92
11878;BME280;5998;42.676;23.268;2023-10-09T13:23:04;95223.28;;;22.17;26.74
11878;BME280;5998;42.676;23.268;2023-10-09T13:25:32;95220.09;;;22.26;25.72
11878;BME280;5998;42.676;23.268;2023-10-09T13:28:05;95210.38;;;22.18;25.92
11878;BME280;5998;42.676;23.268;2023-10-09T13:30:31;95214.72;;;22.12;26.56
11878;BME280;5998;42.676;23.268;2023-10-09T13:33:05;95205.59;;;22.25;27.39
11878;BME280;5998;42.676;23.268;2023-10-09T13:35:33;95195.97;;;22.03;27.65